• Join FlightAware (Why Join?)
  • Login
  • US Flag 
03:04PM EST


 

Airport Tracker/Info


-or-


 

Live Flight TrackerFlight Track Log ✈ VH-OZH ✈ 01-Nov-2013 ✈ YBBN / BNE - YBCG / OOL

Flight Track Log - Related Links

Times and Time Zones

All times are in EDT time to prevent confusion due to time zone crossing. See the VH-OZH flight status page for this flight to view local times or setup timezone preferences in your user account.

Time Position Orientation Groundspeed Altitude Reporting Facility
EDT Latitude Longitude Course Direction KTS MPH feet Rate Location/Type
01:53AM -27.3660 153.1393 92° East 5,000  Level Aus ATC (Calculated)
01:54AM -27.3663 153.1525 144° Southeast 89 102 1,300 -3,180 Descending Aus ATC (RADAR)
01:54AM -27.3721 153.1572 144° Southeast 100 115 1,600 960 Climbing Aus ATC (RADAR)
01:55AM -27.3884 153.1644 158° South 107 123 2,100 840 Climbing Aus ATC (RADAR)
01:56AM -27.4230 153.1867 150° Southeast 119 137 3,200 840 Climbing Aus ATC (RADAR)
01:56AM -27.4365 153.1929 158° South 125 144 3,500 780 Climbing Aus ATC (RADAR)
01:57AM -27.4557 153.2039 153° Southeast 116 133 4,100 480 Climbing Aus ATC (RADAR)
01:58AM -27.4746 153.2166 149° Southeast 135 155 4,100 -120 Level Aus ATC (RADAR)
01:58AM -27.4945 153.2312 147° Southeast 144 166 4,000  Descending Aus ATC (RADAR)
01:59AM -27.5221 153.2509 148° Southeast 140 161 4,100  Climbing Aus ATC (RADAR)
01:59AM -27.5361 153.2609 148° Southeast 141 162 4,000 -120 Descending Aus ATC (RADAR)
02:01AM -27.5729 153.2856 149° Southeast 143 165 4,000  Level Aus ATC (RADAR)
02:01AM -27.5913 153.2933 160° South 141 162 4,000 60 Level Aus ATC (RADAR)
02:01AM -27.6074 153.2987 163° South 142 163 4,100  Climbing Aus ATC (RADAR)
02:02AM -27.6293 153.3067 162° South 142 163 4,000 -120 Descending Aus ATC (RADAR)
02:03AM -27.6508 153.3164 158° South 143 165 4,000  Level Aus ATC (RADAR)
02:03AM -27.6759 153.3272 159° South 143 165 4,000  Level Aus ATC (RADAR)
02:04AM -27.7042 153.3382 161° South 143 165 4,000  Level Aus ATC (RADAR)
02:04AM -27.7197 153.3445 160° South 142 163 4,000  Level Aus ATC (RADAR)
02:05AM -27.7576 153.3584 162° South 143 165 4,000  Level Aus ATC (RADAR)
02:06AM -27.7771 153.3649 163° South 145 167 4,000  Level Aus ATC (RADAR)
02:06AM -27.7928 153.3711 161° South 143 165 4,000 60 Level Aus ATC (RADAR)
02:07AM -27.8154 153.3780 165° South 143 165 4,100  Climbing Aus ATC (RADAR)
02:08AM -27.8410 153.3882 160° South 145 167 4,000 -120 Descending Aus ATC (RADAR)
02:08AM -27.8638 153.3960 163° South 146 168 4,000  Level Aus ATC (RADAR)
02:09AM -27.8958 153.4068 163° South 144 166 4,000 120 Level Aus ATC (RADAR)
02:09AM -27.9117 153.4127 162° South 143 165 4,200  Climbing Aus ATC (RADAR)
02:10AM -27.9345 153.4208 163° South 146 168 4,000 -420 Descending Aus ATC (RADAR)
02:11AM -27.9883 153.4395 163° South 156 180 3,500 -420 Descending Aus ATC (RADAR)
02:12AM -28.0020 153.4437 165° South 154 177 3,300 -660 Descending Aus ATC (RADAR)
02:12AM -28.0256 153.4523 162° South 151 174 2,900 -780 Descending Aus ATC (RADAR)
02:13AM -28.0556 153.4605 166° South 146 168 2,300 -840 Descending Aus ATC (RADAR)
02:14AM -28.0789 153.4677 165° South 148 170 1,800 -720 Descending Aus ATC (RADAR)
02:14AM -28.1122 153.4780 165° South 146 168 1,300 -720 Descending Aus ATC (RADAR)
02:15AM -28.1280 153.4841 161° South 143 165 900 -840 Descending Aus ATC (RADAR)
02:16AM -28.1536 153.4990 153° Southeast 100 115 200 -780 Descending Aus ATC (RADAR)